Time;durP1;ratioP1;P1;durP2;ratioP2;P2;SDS_P1;SDS_P2;PMS_P1;PMS_P2;Temp;Humidity;BMP_temperature;BMP_pressure;BME280_temperature;BME280_humidity;BME280_pressure;Samples;Min_cycle;Max_cycle;Signal;HPM_P1;HPM_P2
2023/09/16 00:00:37;;;;;;;10.13;2.10;;;;;;;13.77;100.00;101387.47;5074969;28;20056;-68
2023/09/16 00:03:04;;;;;;;8.57;1.55;;;;;;;13.76;100.00;101391.91;5075023;28;20051;-68
2023/09/16 00:05:31;;;;;;;7.47;1.60;;;;;;;13.70;100.00;101392.13;5075336;28;20078;-67
2023/09/16 00:07:57;;;;;;;6.90;1.50;;;;;;;13.65;100.00;101402.84;5090173;28;20044;-68
2023/09/16 00:10:24;;;;;;;6.90;1.40;;;;;;;13.59;100.00;101381.19;5055427;28;20045;-67
2023/09/16 00:12:51;;;;;;;7.05;1.58;;;;;;;13.72;100.00;101399.97;5066192;28;20509;-67
2023/09/16 00:15:18;;;;;;;6.43;1.70;;;;;;;14.17;100.00;101396.38;5071742;28;20057;-67
2023/09/16 00:17:44;;;;;;;6.93;1.50;;;;;;;14.29;100.00;101397.63;5070182;28;20052;-67
2023/09/16 00:20:14;;;;;;;6.68;1.50;;;;;;;14.26;100.00;101389.88;5075888;28;20124;-67
2023/09/16 00:22:42;;;;;;;5.05;1.38;;;;;;;14.05;100.00;101398.59;5075287;28;20053;-67
2023/09/16 00:25:10;;;;;;;6.55;1.40;;;;;;;13.77;100.00;101408.53;5075520;28;20048;-67
2023/09/16 00:27:41;;;;;;;7.13;1.75;;;;;;;13.57;100.00;101401.44;5068562;28;20083;-68
2023/09/16 00:30:08;;;;;;;5.00;1.67;;;;;;;13.54;100.00;101402.41;5066017;28;20055;-68
2023/09/16 00:32:35;;;;;;;4.78;1.40;;;;;;;13.50;100.00;101392.94;5070868;28;20063;-67
2023/09/16 00:35:03;;;;;;;5.18;1.30;;;;;;;13.60;100.00;101393.44;5060573;28;20048;-67
2023/09/16 00:37:30;;;;;;;6.93;1.55;;;;;;;13.58;100.00;101403.13;5065278;28;20059;-67
2023/09/16 00:39:56;;;;;;;6.40;1.90;;;;;;;13.45;100.00;101402.78;5071970;28;20056;-68
2023/09/16 00:42:23;;;;;;;8.38;1.52;;;;;;;13.43;100.00;101402.81;5070314;28;20052;-67
2023/09/16 00:44:50;;;;;;;9.20;1.73;;;;;;;13.41;100.00;101402.03;5070642;28;20045;-68
2023/09/16 00:47:16;;;;;;;5.65;1.67;;;;;;;13.40;100.00;101417.88;5067620;28;20059;-67
2023/09/16 00:49:43;;;;;;;9.30;2.10;;;;;;;13.36;100.00;101403.13;5058516;28;20394;-67
2023/09/16 00:52:10;;;;;;;4.65;1.50;;;;;;;13.37;100.00;101407.47;5059354;28;20057;-67
2023/09/16 00:54:38;;;;;;;6.70;1.73;;;;;;;13.39;100.00;101410.91;5056802;28;20535;-68
2023/09/16 00:57:12;;;;;;;6.35;2.08;;;;;;;13.29;100.00;101407.72;5070899;28;20148;-68
2023/09/16 00:59:39;;;;;;;5.20;1.60;;;;;;;13.28;100.00;101416.56;5071341;28;20048;-68
2023/09/16 01:02:09;;;;;;;7.80;2.15;;;;;;;13.29;100.00;101411.22;5071836;28;20422;-68
2023/09/16 01:04:39;;;;;;;5.95;1.70;;;;;;;13.26;100.00;101403.47;5072005;28;20048;-68
2023/09/16 01:07:07;;;;;;;5.70;2.08;;;;;;;13.24;100.00;101399.16;5070611;28;20494;-68
2023/09/16 01:09:34;;;;;;;8.25;1.63;;;;;;;13.24;100.00;101414.94;5058319;28;20053;-68
2023/09/16 01:12:00;;;;;;;6.85;1.70;;;;;;;13.20;100.00;101405.47;5071141;28;20076;-68
2023/09/16 01:14:27;;;;;;;6.68;2.00;;;;;;;13.15;100.00;101416.13;5071192;28;20508;-68
2023/09/16 01:17:06;;;;;;;10.70;2.40;;;;;;;13.11;100.00;101422.44;5068883;28;20056;-68
2023/09/16 01:20:10;;;;;;;4.97;1.50;;;;;;;13.15;100.00;101421.41;5066907;28;20128;-68
2023/09/16 01:22:39;;;;;;;;;;;;;;;13.21;100.00;101429.06;5002167;28;20050;-68
2023/09/16 01:25:06;;;;;;;6.13;1.55;;;;;;;13.09;100.00;101419.88;5040441;28;19924;-67
2023/09/16 01:27:34;;;;;;;8.50;2.03;;;;;;;13.08;100.00;101420.78;5070153;28;20048;-68
2023/09/16 01:30:02;;;;;;;5.15;1.50;;;;;;;12.99;100.00;101421.09;5070195;28;20155;-67
2023/09/16 01:32:41;;;;;;;6.35;1.70;;;;;;;12.98;100.00;101436.94;5065483;28;20458;-68
2023/09/16 01:35:11;;;;;;;5.68;1.50;;;;;;;12.96;100.00;101421.25;5057489;28;20640;-68
2023/09/16 01:37:41;;;;;;;7.28;1.70;;;;;;;12.89;100.00;101419.72;5059327;28;20446;-68
2023/09/16 01:40:11;;;;;;;6.55;1.60;;;;;;;12.89;100.00;101417.09;5067837;28;20048;-68
2023/09/16 01:42:38;;;;;;;6.20;1.55;;;;;;;12.90;100.00;101421.44;5065419;28;20049;-68
2023/09/16 01:45:07;;;;;;;6.10;1.55;;;;;;;12.88;100.00;101429.38;5059663;28;20056;-67
2023/09/16 01:47:34;;;;;;;6.40;1.65;;;;;;;12.85;100.00;101407.63;5065835;28;20500;-67
2023/09/16 01:50:01;;;;;;;6.68;1.45;;;;;;;12.88;100.00;101412.78;5070519;28;20508;-67
2023/09/16 01:52:27;;;;;;;4.30;1.42;;;;;;;12.94;100.00;101416.94;5069938;28;20075;-67
2023/09/16 01:54:54;;;;;;;5.22;1.33;;;;;;;12.84;100.00;101409.41;5068890;28;20053;-66
2023/09/16 01:57:21;;;;;;;5.00;1.40;;;;;;;12.88;100.00;101423.28;5066104;28;20048;-67
2023/09/16 01:59:47;;;;;;;7.95;2.03;;;;;;;12.84;100.00;101422.53;5069643;28;20056;-67
2023/09/16 02:02:14;;;;;;;6.55;1.63;;;;;;;12.85;100.00;101420.75;5070387;28;20071;-67
2023/09/16 02:04:43;;;;;;;8.30;1.65;;;;;;;12.82;100.00;101390.22;5070619;28;20056;-67
2023/09/16 02:07:11;;;;;;;5.25;1.73;;;;;;;12.75;100.00;101409.75;5070013;28;20072;-67
2023/09/16 02:09:38;;;;;;;7.15;1.85;;;;;;;12.83;100.00;101431.31;5060419;28;20071;-67
2023/09/16 02:12:05;;;;;;;5.25;2.17;;;;;;;12.90;100.00;101427.56;5067282;28;20139;-67
2023/09/16 02:14:37;;;;;;;6.57;1.55;;;;;;;12.90;100.00;101424.09;5057754;28;20056;-68
2023/09/16 02:17:04;;;;;;;10.07;1.70;;;;;;;12.89;100.00;101425.88;5064550;28;20052;-67
2023/09/16 02:19:32;;;;;;;7.60;1.70;;;;;;;12.80;100.00;101443.72;5069692;28;20127;-67
2023/09/16 02:21:59;;;;;;;8.48;1.58;;;;;;;12.87;100.00;101438.22;5066994;28;20087;-68
2023/09/16 02:24:26;;;;;;;8.35;1.83;;;;;;;12.75;100.00;101425.50;5056881;28;20131;-67
2023/09/16 02:26:52;;;;;;;4.15;1.15;;;;;;;12.70;100.00;101436.16;5062517;28;20370;-66
2023/09/16 02:29:19;;;;;;;7.10;1.52;;;;;;;12.84;100.00;101443.56;5065857;28;20080;-68
2023/09/16 02:31:46;;;;;;;5.80;1.23;;;;;;;12.79;100.00;101426.25;5069745;28;20135;-68
2023/09/16 02:34:12;;;;;;;5.25;1.40;;;;;;;12.85;100.00;101431.28;5054116;28;20489;-68
2023/09/16 02:36:39;;;;;;;5.43;1.30;;;;;;;12.86;100.00;101425.97;5071839;28;20052;-68
2023/09/16 02:39:06;;;;;;;3.15;1.10;;;;;;;12.89;100.00;101430.25;5069669;28;20131;-68
2023/09/16 02:41:32;;;;;;;7.43;1.50;;;;;;;12.82;100.00;101415.59;5069789;28;20048;-68
2023/09/16 02:43:59;;;;;;;6.80;1.50;;;;;;;12.87;100.00;101422.44;5068354;28;20049;-68
2023/09/16 02:46:25;;;;;;;5.78;1.75;;;;;;;12.85;100.00;101426.88;5051322;28;20505;-68
2023/09/16 02:48:52;;;;;;;5.18;1.40;;;;;;;12.87;100.00;101414.56;5066417;28;20467;-68
2023/09/16 02:51:19;;;;;;;6.35;1.70;;;;;;;12.82;100.00;101411.22;5068384;28;20067;-68
2023/09/16 02:53:45;;;;;;;5.97;1.40;;;;;;;12.76;100.00;101415.84;5061110;28;20052;-68
2023/09/16 02:56:12;;;;;;;4.35;1.25;;;;;;;12.67;100.00;101409.16;5063307;28;20398;-67
2023/09/16 02:58:39;;;;;;;4.88;1.65;;;;;;;12.73;100.00;101417.66;5069415;28;20048;-67
2023/09/16 03:01:10;;;;;;;4.95;1.23;;;;;;;12.82;100.00;101421.75;5081803;28;20048;-67
2023/09/16 03:03:37;;;;;;;4.40;1.63;;;;;;;12.79;100.00;101423.63;5063955;28;20045;-68
2023/09/16 03:06:04;;;;;;;5.22;1.40;;;;;;;12.80;100.00;101425.31;5059889;28;20083;-68
2023/09/16 03:08:31;;;;;;;6.30;1.38;;;;;;;12.67;100.00;101399.47;5065299;28;20045;-68
2023/09/16 03:11:02;;;;;;;9.65;2.08;;;;;;;12.78;100.00;101428.00;5059284;28;20492;-68
2023/09/16 03:13:29;;;;;;;11.88;1.65;;;;;;;12.82;100.00;101440.13;5054323;28;20128;-68
2023/09/16 03:16:22;;;;;;;6.85;1.30;;;;;;;12.80;100.00;101441.97;5067815;28;20049;-68
2023/09/16 03:18:51;;;;;;;7.85;1.90;;;;;;;12.80;100.00;101427.94;5068855;28;20045;-68
2023/09/16 03:21:19;;;;;;;9.23;1.70;;;;;;;12.79;100.00;101449.91;5069058;28;20130;-68
2023/09/16 03:23:46;;;;;;;7.07;1.65;;;;;;;12.76;100.00;101440.34;5069094;28;20394;-68
2023/09/16 03:26:15;;;;;;;4.15;1.40;;;;;;;12.72;100.00;101444.00;5069092;28;20056;-68
2023/09/16 03:28:47;;;;;;;6.22;1.50;;;;;;;12.70;100.00;101451.94;5066867;28;20126;-67
2023/09/16 03:31:15;;;;;;;5.72;1.40;;;;;;;12.68;100.00;101431.88;5058494;28;20053;-67
2023/09/16 03:33:42;;;;;;;7.55;1.83;;;;;;;12.58;100.00;101441.00;5068855;28;20132;-67
2023/09/16 03:36:09;;;;;;;7.70;2.10;;;;;;;12.67;100.00;101441.53;5068592;28;20048;-67
2023/09/16 03:38:49;;;;;;;6.68;1.40;;;;;;;12.75;100.00;101443.00;5069133;28;20143;-67
2023/09/16 03:41:17;;;;;;;5.15;1.40;;;;;;;12.75;100.00;101445.66;5052446;28;20143;-67
2023/09/16 03:43:43;;;;;;;5.32;1.50;;;;;;;12.67;100.00;101446.78;5061996;28;20409;-67
2023/09/16 03:46:13;;;;;;;6.72;1.48;;;;;;;12.70;100.00;101436.16;5065214;28;20055;-67
2023/09/16 03:48:40;;;;;;;5.82;1.40;;;;;;;12.78;100.00;101442.91;5068665;28;20500;-67
2023/09/16 03:51:07;;;;;;;5.78;1.17;;;;;;;12.81;100.00;101443.66;5068302;28;20094;-67
2023/09/16 03:53:35;;;;;;;5.45;1.50;;;;;;;12.75;100.00;101440.38;5067498;28;20144;-67
2023/09/16 03:56:08;;;;;;;5.10;1.40;;;;;;;12.67;100.00;101431.00;5057071;28;20056;-67
2023/09/16 03:58:36;;;;;;;5.38;1.30;;;;;;;12.80;100.00;101441.97;5068860;28;20091;-68
2023/09/16 04:01:06;;;;;;;6.05;1.58;;;;;;;12.65;100.00;101432.00;5067802;28;20056;-67
2023/09/16 04:03:34;;;;;;;7.95;1.50;;;;;;;12.72;100.00;101441.38;5064481;28;20044;-67
2023/09/16 04:06:03;;;;;;;9.20;1.85;;;;;;;12.65;100.00;101439.88;5060806;28;20052;-67
2023/09/16 04:08:31;;;;;;;5.97;1.30;;;;;;;12.86;100.00;101439.09;5071212;28;20140;-68
2023/09/16 04:11:08;;;;;;;6.47;1.58;;;;;;;12.84;100.00;101450.59;5061607;28;20048;-67
2023/09/16 04:13:35;;;;;;;7.05;1.35;;;;;;;12.68;100.00;101439.78;5053445;28;20040;-67
2023/09/16 04:16:01;;;;;;;7.25;1.40;;;;;;;12.53;100.00;101442.00;5052919;28;20045;-68
2023/09/16 04:18:29;;;;;;;5.95;1.50;;;;;;;12.65;100.00;101453.00;5067424;28;20053;-67
2023/09/16 04:20:56;;;;;;;4.78;1.38;;;;;;;12.65;100.00;101448.59;5063255;28;20045;-67
2023/09/16 04:23:23;;;;;;;4.80;1.30;;;;;;;12.62;100.00;101451.31;5066628;28;20045;-68
2023/09/16 04:25:57;;;;;;;6.60;1.52;;;;;;;12.54;100.00;101461.25;5072621;28;20059;-68
2023/09/16 04:28:24;;;;;;;6.53;1.42;;;;;;;12.53;100.00;101459.53;5062779;28;20054;-67
2023/09/16 04:30:52;;;;;;;6.40;1.45;;;;;;;12.51;100.00;101456.09;5062035;28;20052;-68
2023/09/16 04:33:20;;;;;;;7.22;1.40;;;;;;;12.56;100.00;101458.59;5072140;28;20048;-68
2023/09/16 04:35:49;;;;;;;4.30;1.20;;;;;;;12.57;100.00;101455.03;5068582;28;20049;-68
2023/09/16 04:38:16;;;;;;;7.38;1.30;;;;;;;12.56;100.00;101453.34;5070750;28;20387;-67
2023/09/16 04:40:44;;;;;;;6.82;1.20;;;;;;;12.54;100.00;101456.00;5061157;28;20044;-68
2023/09/16 04:43:14;;;;;;;7.95;1.58;;;;;;;12.51;100.00;101453.47;5058312;28;20049;-68
2023/09/16 04:45:44;;;;;;;6.88;1.60;;;;;;;12.51;100.00;101453.47;5052177;28;20124;-67
2023/09/16 04:48:15;;;;;;;11.93;1.80;;;;;;;12.44;100.00;101449.34;5052022;28;20053;-67
2023/09/16 04:50:43;;;;;;;8.13;1.50;;;;;;;12.31;100.00;101451.53;5061896;28;20059;-68
2023/09/16 04:53:10;;;;;;;8.40;1.40;;;;;;;12.31;100.00;101441.88;5069676;28;20050;-69
2023/09/16 04:55:37;;;;;;;6.30;1.77;;;;;;;12.42;100.00;101459.91;5068691;28;20061;-68
2023/09/16 04:58:04;;;;;;;6.32;1.40;;;;;;;12.61;100.00;101459.28;5069341;28;20134;-68
2023/09/16 05:00:33;;;;;;;6.97;1.60;;;;;;;12.52;100.00;101448.19;5069628;28;20486;-68
2023/09/16 05:03:00;;;;;;;8.25;1.60;;;;;;;12.55;100.00;101455.06;5070070;28;20551;-68
2023/09/16 05:05:27;;;;;;;3.92;1.15;;;;;;;12.64;100.00;101452.16;5065009;28;20132;-68
2023/09/16 05:07:54;;;;;;;5.22;1.35;;;;;;;12.61;100.00;101460.13;5066373;28;20052;-68
2023/09/16 05:10:20;;;;;;;6.88;1.70;;;;;;;12.69;100.00;101462.50;5068749;28;20490;-68
2023/09/16 05:12:50;;;;;;;5.05;1.33;;;;;;;12.57;100.00;101452.41;5069355;28;20080;-68
2023/09/16 05:15:17;;;;;;;8.38;1.75;;;;;;;12.62;100.00;101458.34;5070544;28;20094;-67
2023/09/16 05:17:44;;;;;;;6.40;1.30;;;;;;;12.51;100.00;101466.63;5070764;28;20055;-67
2023/09/16 05:20:11;;;;;;;9.68;1.50;;;;;;;12.45;100.00;101459.81;5070024;28;20048;-67
2023/09/16 05:22:38;;;;;;;5.90;1.42;;;;;;;12.38;100.00;101466.19;5058963;28;20139;-68
2023/09/16 05:25:06;;;;;;;6.05;1.55;;;;;;;12.49;100.00;101466.66;5066530;28;20047;-68
2023/09/16 05:27:33;;;;;;;7.30;1.45;;;;;;;12.42;100.00;101470.41;5070293;28;20049;-68
2023/09/16 05:30:01;;;;;;;5.03;1.20;;;;;;;12.45;100.00;101470.31;5064506;28;20044;-68
2023/09/16 05:32:29;;;;;;;7.50;1.40;;;;;;;12.40;100.00;101468.75;5070607;28;20055;-67
2023/09/16 05:34:57;;;;;;;6.57;1.70;;;;;;;12.38;100.00;101479.31;5070040;28;20040;-68
2023/09/16 05:37:23;;;;;;;5.55;1.30;;;;;;;12.41;100.00;101468.72;5067046;28;20048;-68
2023/09/16 05:39:50;;;;;;;6.45;1.40;;;;;;;12.49;100.00;101474.53;5060316;28;20057;-68
2023/09/16 05:42:17;;;;;;;9.40;1.70;;;;;;;12.38;100.00;101487.19;5056283;28;20532;-68
2023/09/16 05:44:43;;;;;;;10.45;1.63;;;;;;;12.32;100.00;101490.88;5070016;28;20048;-67
2023/09/16 05:47:10;;;;;;;6.68;1.50;;;;;;;12.39;100.00;101486.25;5067045;28;20497;-67
2023/09/16 05:49:37;;;;;;;7.28;1.52;;;;;;;12.42;100.00;101494.03;5086226;28;20135;-68
2023/09/16 05:52:03;;;;;;;8.13;1.63;;;;;;;12.25;100.00;101476.25;5069041;28;20059;-66
2023/09/16 05:54:30;;;;;;;5.53;1.55;;;;;;;12.46;100.00;101500.91;5069212;28;20102;-67
2023/09/16 05:56:57;;;;;;;10.70;1.95;;;;;;;12.37;100.00;101493.34;5063837;28;20067;-67
2023/09/16 05:59:23;;;;;;;5.80;1.60;;;;;;;12.18;100.00;101479.94;5063637;28;20516;-68
2023/09/16 06:01:50;;;;;;;8.77;1.83;;;;;;;12.33;100.00;101496.97;5069605;28;20048;-68
2023/09/16 06:04:17;;;;;;;6.82;1.73;;;;;;;12.42;100.00;101507.19;5060506;28;20048;-68
2023/09/16 06:06:49;;;;;;;7.28;1.52;;;;;;;12.45;100.00;101517.59;5066867;28;20061;-68
2023/09/16 06:09:16;;;;;;;7.30;1.60;;;;;;;12.48;100.00;101517.50;5070583;28;20139;-68
2023/09/16 06:11:42;;;;;;;8.13;2.15;;;;;;;12.58;100.00;101520.66;5067607;28;20049;-68
2023/09/16 06:14:09;;;;;;;5.60;1.45;;;;;;;12.61;100.00;101522.34;5055974;28;20068;-67
2023/09/16 06:16:36;;;;;;;7.95;1.45;;;;;;;12.63;100.00;101521.38;5052419;28;20059;-66
2023/09/16 06:19:02;;;;;;;6.55;1.30;;;;;;;12.64;100.00;101538.84;5049993;28;20052;-67
2023/09/16 06:21:30;;;;;;;3.85;1.35;;;;;;;12.54;100.00;101529.56;5060063;28;20060;-68
2023/09/16 06:23:57;;;;;;;4.38;1.33;;;;;;;12.51;100.00;101527.88;5050457;28;20467;-67
2023/09/16 06:26:24;;;;;;;5.05;1.30;;;;;;;12.50;100.00;101527.91;5059753;28;20573;-68
2023/09/16 06:28:51;;;;;;;7.38;1.63;;;;;;;12.58;100.00;101541.66;5057106;28;20421;-68
2023/09/16 06:31:17;;;;;;;6.18;1.40;;;;;;;12.59;100.00;101558.28;5066721;28;20060;-68
2023/09/16 06:33:44;;;;;;;5.60;1.45;;;;;;;12.68;100.00;101555.38;5051738;28;20052;-68
2023/09/16 06:36:11;;;;;;;8.20;1.55;;;;;;;12.70;100.00;101557.03;5064215;28;20056;-67
2023/09/16 06:38:38;;;;;;;4.88;1.10;;;;;;;12.76;100.00;101544.59;5059102;28;20048;-68
2023/09/16 06:41:04;;;;;;;5.05;1.30;;;;;;;12.57;100.00;101531.22;5063391;28;20040;-68
2023/09/16 06:43:31;;;;;;;7.63;1.42;;;;;;;12.72;100.00;101559.59;5055307;28;20045;-68
2023/09/16 06:45:57;;;;;;;5.93;1.58;;;;;;;12.82;100.00;101563.66;5057506;28;20063;-68
2023/09/16 06:48:24;;;;;;;5.80;1.58;;;;;;;12.76;100.00;101555.09;5049509;28;20049;-68
2023/09/16 06:50:51;;;;;;;5.13;1.50;;;;;;;12.64;100.00;101554.63;5051176;28;20525;-67
2023/09/16 06:53:18;;;;;;;4.88;1.27;;;;;;;12.80;100.00;101559.34;5053477;28;20395;-68
2023/09/16 06:55:47;;;;;;;8.07;1.50;;;;;;;12.85;100.00;101555.63;5059080;28;20041;-68
2023/09/16 06:58:14;;;;;;;4.93;1.20;;;;;;;12.79;100.00;101552.38;5052812;28;20461;-68
2023/09/16 07:01:06;;;;;;;6.13;1.73;;;;;;;12.65;100.00;101558.09;5053916;28;20056;-67
2023/09/16 07:03:33;;;;;;;5.28;1.38;;;;;;;12.62;100.00;101548.53;5050659;28;20571;-67
2023/09/16 07:06:00;;;;;;;6.35;1.40;;;;;;;12.68;100.00;101547.50;5057338;28;20060;-67
2023/09/16 07:08:27;;;;;;;6.45;1.55;;;;;;;12.84;100.00;101558.34;5053543;28;20102;-68
2023/09/16 07:10:54;;;;;;;4.07;1.10;;;;;;;12.77;100.00;101549.81;5053620;28;20079;-68
2023/09/16 07:13:21;;;;;;;4.18;1.20;;;;;;;12.78;100.00;101535.75;5060110;28;20084;-68
2023/09/16 07:15:55;;;;;;;9.85;2.10;;;;;;;12.66;100.00;101542.28;5058348;28;20071;-67
2023/09/16 07:18:22;;;;;;;6.05;1.42;;;;;;;12.54;100.00;101547.94;5061717;28;20603;-67
2023/09/16 07:20:49;;;;;;;4.63;1.30;;;;;;;12.62;100.00;101545.06;5060900;28;20069;-68
2023/09/16 07:23:16;;;;;;;5.25;1.35;;;;;;;12.62;100.00;101543.28;5050197;28;20142;-68
2023/09/16 07:25:42;;;;;;;7.28;1.50;;;;;;;12.67;100.00;101535.25;5048933;28;20040;-68
2023/09/16 07:28:10;;;;;;;4.72;1.90;;;;;;;12.87;100.00;101548.59;5063686;28;20076;-67
2023/09/16 07:30:39;;;;;;;6.78;1.70;;;;;;;12.95;100.00;101548.31;5061666;28;20073;-67
2023/09/16 07:33:05;;;;;;;6.45;1.55;;;;;;;12.80;100.00;101551.47;5066496;28;20486;-68
2023/09/16 07:35:32;;;;;;;6.93;1.50;;;;;;;12.73;100.00;101556.09;5062487;28;20558;-67
2023/09/16 07:37:59;;;;;;;6.65;1.48;;;;;;;12.96;100.00;101557.03;5059203;28;20045;-67
2023/09/16 07:40:26;;;;;;;7.90;1.92;;;;;;;12.80;100.00;101549.72;5062148;28;20056;-67
2023/09/16 07:42:52;;;;;;;5.70;1.30;;;;;;;12.91;100.00;101547.56;5052467;28;20103;-67
2023/09/16 07:45:19;;;;;;;4.63;1.35;;;;;;;13.08;100.00;101546.09;5053869;28;20517;-66
2023/09/16 07:47:46;;;;;;;7.80;1.77;;;;;;;13.20;100.00;101545.69;5056021;28;20053;-67
2023/09/16 07:50:13;;;;;;;7.03;1.42;;;;;;;13.17;100.00;101539.66;5073010;28;20529;-67
2023/09/16 07:52:39;;;;;;;5.85;1.60;;;;;;;13.25;100.00;101542.91;5068110;28;20106;-67
2023/09/16 07:55:07;;;;;;;6.85;1.33;;;;;;;13.17;100.00;101545.78;5057723;28;20131;-66
2023/09/16 07:57:34;;;;;;;9.20;1.75;;;;;;;13.12;100.00;101545.09;5054435;28;20057;-67
2023/09/16 08:00:05;;;;;;;7.13;1.40;;;;;;;13.09;100.00;101527.66;5061330;28;20406;-68
2023/09/16 08:02:32;;;;;;;4.53;1.58;;;;;;;13.24;100.00;101541.16;5054253;28;20084;-67
2023/09/16 08:04:59;;;;;;;5.35;1.40;;;;;;;13.26;100.00;101545.47;5061688;28;20048;-67
2023/09/16 08:07:26;;;;;;;5.45;1.35;;;;;;;13.39;100.00;101555.59;5060931;28;20134;-68
2023/09/16 08:09:52;;;;;;;9.13;1.25;;;;;;;13.33;100.00;101543.50;5059674;28;20135;-68
2023/09/16 08:12:23;;;;;;;5.13;1.20;;;;;;;13.39;100.00;101555.59;5053571;28;20099;-68
2023/09/16 08:14:50;;;;;;;6.47;1.50;;;;;;;13.55;100.00;101548.84;5053893;28;20064;-68
2023/09/16 08:17:16;;;;;;;7.53;1.60;;;;;;;13.36;100.00;101524.13;5059078;28;20159;-68
2023/09/16 08:19:43;;;;;;;5.13;1.20;;;;;;;13.42;100.00;101555.44;5059015;28;20068;-67
2023/09/16 08:22:10;;;;;;;9.00;1.38;;;;;;;13.34;100.00;101552.25;5060323;28;20080;-67
2023/09/16 08:24:36;;;;;;;8.55;1.92;;;;;;;13.11;100.00;101564.41;5066476;28;20053;-68
2023/09/16 08:27:03;;;;;;;8.02;1.40;;;;;;;13.23;100.00;101563.97;5066365;28;20459;-67
2023/09/16 08:29:30;;;;;;;6.82;1.48;;;;;;;13.20;100.00;101550.94;5062117;28;20081;-68
2023/09/16 08:31:57;;;;;;;4.05;1.10;;;;;;;13.55;100.00;101559.38;5056454;28;20146;-67
2023/09/16 08:34:23;;;;;;;4.68;1.30;;;;;;;13.59;100.00;101558.31;5065754;28;20048;-68
2023/09/16 08:36:50;;;;;;;11.50;1.73;;;;;;;13.55;100.00;101569.03;5069897;28;20139;-67
2023/09/16 08:39:17;;;;;;;9.30;1.60;;;;;;;13.49;100.00;101564.84;5070757;28;20048;-67
2023/09/16 08:41:59;;;;;;;6.05;1.58;;;;;;;13.47;100.00;101570.19;5070093;28;20149;-68
2023/09/16 08:44:29;;;;;;;5.78;1.30;;;;;;;13.43;100.00;101565.91;5063590;28;20080;-67
2023/09/16 08:47:04;;;;;;;6.55;1.65;;;;;;;13.43;100.00;101579.06;5054442;28;20045;-67
2023/09/16 08:49:34;;;;;;;6.03;1.65;;;;;;;13.48;100.00;101571.88;5063396;28;20045;-67
2023/09/16 08:52:03;;;;;;;5.95;1.60;;;;;;;13.91;100.00;101572.03;5052364;28;20057;-67
2023/09/16 08:54:34;;;;;;;8.00;1.60;;;;;;;13.57;100.00;101575.09;5066606;28;20133;-68
2023/09/16 08:57:02;;;;;;;5.65;1.35;;;;;;;13.81;100.00;101568.03;5058891;28;20126;-68
2023/09/16 08:59:30;;;;;;;6.43;1.10;;;;;;;14.00;100.00;101566.41;5055919;28;20095;-67
2023/09/16 09:01:57;;;;;;;8.52;2.00;;;;;;;14.08;100.00;101562.63;5061239;28;20052;-67
2023/09/16 09:04:25;;;;;;;8.68;1.50;;;;;;;14.09;100.00;101561.72;5055209;28;20143;-68
2023/09/16 09:06:53;;;;;;;5.38;1.88;;;;;;;14.35;100.00;101569.44;5062635;28;20440;-68
2023/09/16 09:09:20;;;;;;;5.82;1.48;;;;;;;14.29;100.00;101579.38;5065855;28;20410;-68
2023/09/16 09:11:48;;;;;;;6.82;1.35;;;;;;;14.11;100.00;101580.94;5064083;28;20473;-68
2023/09/16 09:14:17;;;;;;;7.03;1.60;;;;;;;14.11;100.00;101573.94;5069405;28;20106;-68
2023/09/16 09:16:46;;;;;;;7.43;1.40;;;;;;;14.32;100.00;101560.81;5063686;28;20128;-68
2023/09/16 09:19:14;;;;;;;8.40;1.27;;;;;;;14.31;100.00;101561.75;5066572;28;20098;-68
2023/09/16 09:21:43;;;;;;;5.57;1.40;;;;;;;14.49;100.00;101568.03;5068929;28;20056;-68
2023/09/16 09:24:10;;;;;;;7.50;1.63;;;;;;;14.30;100.00;101567.91;5060678;28;20584;-68
2023/09/16 09:26:36;;;;;;;9.70;1.75;;;;;;;14.46;100.00;101576.06;5057854;28;20037;-67
2023/09/16 09:29:09;;;;;;;5.80;1.38;;;;;;;14.63;100.00;101578.06;5064739;28;20049;-68
2023/09/16 09:31:36;;;;;;;4.50;1.33;;;;;;;14.61;100.00;101572.84;5066624;28;20058;-67
2023/09/16 09:34:03;;;;;;;5.22;1.58;;;;;;;14.77;100.00;101563.38;5050838;28;20474;-66
2023/09/16 09:36:32;;;;;;;7.25;1.30;;;;;;;14.68;100.00;101576.06;5057948;28;20419;-67
2023/09/16 09:38:59;;;;;;;7.75;1.52;;;;;;;14.50;100.00;101567.09;5065701;28;20079;-67
2023/09/16 09:41:26;;;;;;;7.57;1.33;;;;;;;14.76;100.00;101572.19;5063492;28;20457;-68
2023/09/16 09:43:53;;;;;;;6.40;1.42;;;;;;;14.54;100.00;101558.19;5068161;28;20057;-67
2023/09/16 09:46:21;;;;;;;5.93;1.35;;;;;;;14.59;100.00;101557.09;5053144;28;20076;-67
2023/09/16 09:48:48;;;;;;;8.98;1.30;;;;;;;14.74;100.00;101560.84;5066831;28;20079;-67
2023/09/16 09:51:18;;;;;;;16.55;5.60;;;;;;;14.46;100.00;101555.00;5065882;28;20456;-68
2023/09/16 09:53:46;;;;;;;19.00;5.70;;;;;;;14.52;100.00;101552.97;5052873;28;20088;-67
2023/09/16 09:56:13;;;;;;;22.30;9.38;;;;;;;14.92;100.00;101548.66;5052553;28;20462;-67
2023/09/16 09:58:40;;;;;;;8.48;2.47;;;;;;;14.51;100.00;101542.50;5059806;28;20060;-67
2023/09/16 10:01:07;;;;;;;17.50;4.95;;;;;;;14.70;100.00;101550.53;5064506;28;20084;-67
2023/09/16 10:03:34;;;;;;;11.45;3.33;;;;;;;14.87;100.00;101547.16;5063723;28;20095;-67
2023/09/16 10:06:13;;;;;;;14.73;3.88;;;;;;;14.93;100.00;101546.91;5055782;28;20386;-68
2023/09/16 10:08:40;;;;;;;14.07;5.25;;;;;;;15.08;100.00;101550.66;5051308;28;20548;-68
2023/09/16 10:11:06;;;;;;;10.80;2.30;;;;;;;14.93;100.00;101549.56;5058315;28;20114;-67
2023/09/16 10:13:34;;;;;;;5.07;1.50;;;;;;;14.97;100.00;101533.50;5062896;28;20482;-68
2023/09/16 10:16:01;;;;;;;7.47;1.67;;;;;;;15.01;100.00;101544.78;5054386;28;20130;-68
2023/09/16 10:18:29;;;;;;;9.80;2.13;;;;;;;15.11;100.00;101546.09;5058733;28;20231;-67
2023/09/16 10:20:56;;;;;;;12.35;2.35;;;;;;;14.79;100.00;101547.50;5061445;28;20541;-68
2023/09/16 10:23:23;;;;;;;8.48;1.70;;;;;;;15.26;100.00;101551.63;5054034;28;20090;-68
2023/09/16 10:25:50;;;;;;;14.20;2.72;;;;;;;15.05;100.00;101553.41;5054704;28;20036;-67
2023/09/16 10:28:17;;;;;;;8.15;2.60;;;;;;;15.13;100.00;101552.16;5063920;28;20114;-67
2023/09/16 10:30:46;;;;;;;7.00;1.58;;;;;;;15.17;100.00;101555.53;5064613;28;20045;-67
2023/09/16 10:33:14;;;;;;;7.72;1.75;;;;;;;14.94;100.00;101551.25;5050969;28;20099;-67
2023/09/16 10:35:42;;;;;;;8.85;1.80;;;;;;;15.33;100.00;101561.84;5061495;28;20052;-68
2023/09/16 10:38:11;;;;;;;6.43;1.50;;;;;;;15.29;100.00;101564.69;5067779;28;20063;-68
2023/09/16 10:40:39;;;;;;;8.65;1.63;;;;;;;15.24;100.00;101554.31;5067379;28;20490;-68
2023/09/16 10:43:06;;;;;;;9.88;1.55;;;;;;;15.39;100.00;101555.44;5057883;28;20048;-68
2023/09/16 10:45:33;;;;;;;13.85;1.60;;;;;;;15.82;100.00;101542.94;5067493;28;20135;-68
2023/09/16 10:48:01;;;;;;;8.77;1.80;;;;;;;15.90;100.00;101530.25;5067309;28;20048;-68
2023/09/16 10:50:34;;;;;;;9.80;1.30;;;;;;;16.24;100.00;101541.00;5057721;28;20390;-68
2023/09/16 10:53:02;;;;;;;6.18;1.65;;;;;;;16.21;100.00;101538.47;5053859;28;20057;-68
2023/09/16 10:55:35;;;;;;;5.75;1.23;;;;;;;16.21;100.00;101534.03;5055565;28;20128;-67
2023/09/16 10:58:09;;;;;;;6.22;1.30;;;;;;;16.44;100.00;101530.28;5067790;28;20040;-67
2023/09/16 11:00:40;;;;;;;8.68;1.45;;;;;;;16.48;100.00;101531.84;5066909;28;20434;-67
2023/09/16 11:03:14;;;;;;;5.53;1.23;;;;;;;16.50;100.00;101522.06;5066559;28;20052;-67
2023/09/16 11:05:41;;;;;;;6.90;1.27;;;;;;;16.72;100.00;101530.69;5068648;28;20060;-67
2023/09/16 11:08:09;;;;;;;6.75;1.58;;;;;;;16.69;100.00;101540.47;5067254;28;20084;-68
2023/09/16 11:10:37;;;;;;;5.45;1.30;;;;;;;16.51;100.00;101544.91;5065147;28;20045;-67
2023/09/16 11:13:04;;;;;;;4.70;0.95;;;;;;;16.90;100.00;101540.34;5056327;28;20049;-67
2023/09/16 11:15:35;;;;;;;4.88;1.20;;;;;;;17.11;100.00;101540.19;5063078;28;20098;-67
2023/09/16 11:18:04;;;;;;;4.88;1.10;;;;;;;16.95;100.00;101546.25;5056103;28;20045;-67
2023/09/16 11:20:37;;;;;;;6.28;1.30;;;;;;;17.46;100.00;101533.03;5066721;28;20079;-67